createdAt,value
2022-12-11T00:00:32.317Z,3.65
2022-12-11T00:03:00.621Z,4.57
2022-12-11T00:05:30.433Z,4.70
2022-12-11T00:07:59.118Z,4.35
2022-12-11T00:10:27.997Z,4.10
2022-12-11T00:12:56.860Z,3.80
2022-12-11T00:15:25.007Z,3.20
2022-12-11T00:17:52.948Z,3.30
2022-12-11T00:20:21.383Z,3.10
2022-12-11T00:22:50.904Z,3.83
2022-12-11T00:25:18.905Z,4.68
2022-12-11T00:27:47.032Z,3.90
2022-12-11T00:30:15.674Z,3.20
2022-12-11T00:32:44.800Z,3.08
2022-12-11T00:35:13.425Z,3.10
2022-12-11T00:37:42.015Z,3.30
2022-12-11T00:40:17.541Z,2.97
2022-12-11T00:42:45.936Z,2.50
2022-12-11T00:45:13.890Z,2.20
2022-12-11T00:47:42.163Z,2.28
2022-12-11T00:50:10.545Z,2.60
2022-12-11T00:52:39.027Z,2.38
2022-12-11T00:55:07.475Z,2.83
2022-12-11T00:57:37.325Z,2.70
2022-12-11T01:00:06.615Z,3.10
2022-12-11T01:02:34.904Z,2.70
2022-12-11T01:05:03.361Z,1.90
2022-12-11T01:07:31.776Z,1.80
2022-12-11T01:10:17.608Z,1.90
2022-12-11T01:12:47.309Z,1.67
2022-12-11T01:15:15.569Z,1.60
2022-12-11T01:17:44.135Z,1.70
2022-12-11T01:20:12.958Z,1.90
2022-12-11T01:22:41.284Z,1.80
2022-12-11T01:25:10.908Z,2.25
2022-12-11T01:27:39.472Z,2.20
2022-12-11T01:30:11.597Z,2.25
2022-12-11T01:32:39.948Z,2.47
2022-12-11T01:35:09.120Z,2.33
2022-12-11T01:37:37.859Z,2.58
2022-12-11T01:40:10.662Z,2.60
2022-12-11T01:42:38.909Z,2.03
2022-12-11T01:45:26.888Z,2.22
2022-12-11T01:47:57.891Z,2.40
2022-12-11T01:50:26.149Z,2.50
2022-12-11T01:52:54.705Z,2.60
2022-12-11T01:55:22.932Z,3.00
2022-12-11T01:57:52.452Z,2.45
2022-12-11T02:00:22.527Z,2.92
2022-12-11T02:02:50.752Z,2.78
2022-12-11T02:05:18.873Z,2.67
2022-12-11T02:07:50.668Z,2.47
2022-12-11T02:10:19.004Z,2.50
2022-12-11T02:12:54.875Z,2.33
2022-12-11T02:15:27.384Z,2.53
2022-12-11T02:18:01.410Z,2.60
2022-12-11T02:20:32.562Z,2.40
2022-12-11T02:23:07.979Z,1.85
2022-12-11T02:25:38.148Z,2.00
2022-12-11T02:28:16.980Z,2.20
2022-12-11T02:30:48.170Z,2.20
2022-12-11T02:33:16.924Z,2.10
2022-12-11T02:35:47.225Z,2.40
2022-12-11T02:38:17.234Z,2.20
2022-12-11T02:40:46.062Z,2.10
2022-12-11T02:43:17.326Z,2.17
2022-12-11T02:45:46.892Z,2.13
2022-12-11T02:48:16.295Z,1.95
2022-12-11T02:50:47.382Z,1.92
2022-12-11T02:53:17.972Z,1.77
2022-12-11T02:55:47.320Z,2.13
2022-12-11T02:58:19.366Z,1.92
2022-12-11T03:00:47.924Z,1.70
2022-12-11T03:03:16.365Z,1.33
2022-12-11T03:05:46.352Z,1.45
2022-12-11T03:08:18.788Z,1.40
2022-12-11T03:10:47.402Z,1.58
2022-12-11T03:13:17.934Z,1.05
2022-12-11T03:15:51.438Z,1.30
2022-12-11T03:18:22.702Z,1.08
2022-12-11T03:20:56.059Z,1.10
2022-12-11T03:23:29.177Z,1.10
2022-12-11T03:25:58.721Z,0.80
2022-12-11T03:28:29.169Z,0.90
2022-12-11T03:30:59.472Z,0.65
2022-12-11T03:33:31.246Z,1.00
2022-12-11T03:36:02.685Z,0.85
2022-12-11T03:38:33.446Z,0.90
2022-12-11T03:41:03.213Z,0.90
2022-12-11T03:43:32.118Z,0.93
2022-12-11T03:46:02.188Z,0.98
2022-12-11T03:48:33.969Z,0.77
2022-12-11T03:51:03.246Z,0.70
2022-12-11T03:53:31.441Z,0.85
2022-12-11T03:56:00.571Z,0.77
2022-12-11T03:58:32.501Z,1.15
2022-12-11T04:01:05.918Z,1.00
2022-12-11T04:03:33.948Z,1.00
2022-12-11T04:06:02.675Z,0.85
2022-12-11T04:08:31.711Z,0.70
2022-12-11T04:11:13.504Z,0.82
2022-12-11T04:13:42.722Z,0.70
2022-12-11T04:16:11.188Z,1.10
2022-12-11T04:18:56.700Z,0.90
2022-12-11T04:21:42.408Z,0.80
2022-12-11T04:24:19.523Z,0.85
2022-12-11T04:26:55.600Z,0.80
2022-12-11T04:29:24.062Z,0.88
2022-12-11T04:31:53.591Z,1.10
2022-12-11T04:34:21.926Z,0.82
2022-12-11T04:36:49.912Z,0.80
2022-12-11T04:39:18.972Z,0.85
2022-12-11T04:41:50.363Z,0.90
2022-12-11T04:44:18.852Z,0.80
2022-12-11T04:46:47.188Z,0.93
2022-12-11T04:49:16.672Z,1.13
2022-12-11T04:51:45.004Z,1.10
2022-12-11T04:54:13.309Z,1.00
2022-12-11T04:56:41.720Z,0.93
2022-12-11T04:59:10.141Z,1.05
2022-12-11T05:01:38.133Z,1.20
2022-12-11T05:04:06.177Z,1.80
2022-12-11T05:06:35.997Z,1.92
2022-12-11T05:09:04.392Z,3.10
2022-12-11T05:11:32.500Z,2.50
2022-12-11T05:14:00.638Z,3.22
2022-12-11T05:16:29.032Z,1.50
2022-12-11T05:18:57.757Z,1.65
2022-12-11T05:21:30.253Z,1.48
2022-12-11T05:24:02.909Z,1.48
2022-12-11T05:26:31.490Z,1.60
2022-12-11T05:28:59.446Z,1.95
2022-12-11T05:31:28.252Z,1.92
2022-12-11T05:33:57.587Z,3.35
2022-12-11T05:36:26.957Z,2.58
2022-12-11T05:38:55.221Z,3.65
2022-12-11T05:41:25.805Z,3.15
2022-12-11T05:43:54.282Z,1.90
2022-12-11T05:46:23.459Z,2.00
2022-12-11T05:48:53.332Z,2.08
2022-12-11T05:51:31.685Z,1.63
2022-12-11T05:54:00.273Z,1.90
2022-12-11T05:56:30.941Z,2.70
2022-12-11T05:58:59.544Z,1.98
2022-12-11T06:01:29.076Z,2.30
2022-12-11T06:03:57.833Z,1.80
2022-12-11T06:06:26.544Z,1.90
2022-12-11T06:08:55.453Z,1.90
2022-12-11T06:11:24.645Z,1.98
2022-12-11T06:14:32.470Z,2.10
2022-12-11T06:17:14.121Z,2.15
2022-12-11T06:19:44.453Z,1.42
2022-12-11T06:22:13.226Z,2.63
2022-12-11T06:24:46.416Z,2.22
2022-12-11T06:27:40.551Z,2.47
2022-12-11T06:30:15.856Z,2.15
2022-12-11T06:32:58.243Z,2.72
2022-12-11T06:35:54.937Z,2.58
2022-12-11T06:38:31.750Z,3.55
2022-12-11T06:41:16.861Z,11.57
2022-12-11T06:44:11.067Z,3.63
2022-12-11T06:49:24.932Z,2.40
2022-12-11T06:52:18.250Z,3.75
2022-12-11T06:55:33.046Z,2.95
2022-12-11T06:58:09.596Z,3.05
2022-12-11T07:00:42.116Z,3.80
2022-12-11T07:03:22.259Z,3.55
2022-12-11T07:06:08.520Z,3.70
2022-12-11T07:08:50.093Z,2.80
2022-12-11T07:11:33.341Z,2.70
2022-12-11T07:14:03.355Z,2.55
2022-12-11T07:16:39.403Z,3.50
2022-12-11T07:19:11.145Z,3.95
2022-12-11T07:21:40.862Z,3.67
2022-12-11T07:24:09.686Z,2.50
2022-12-11T07:26:37.741Z,3.60
2022-12-11T07:29:05.977Z,3.08
2022-12-11T07:31:34.222Z,3.70
2022-12-11T07:34:03.819Z,5.13
2022-12-11T07:36:32.578Z,4.35
2022-12-11T07:39:03.215Z,4.28
2022-12-11T07:41:31.982Z,4.47
2022-12-11T07:44:01.090Z,3.60
2022-12-11T07:46:31.727Z,3.50
2022-12-11T07:49:00.989Z,4.60
2022-12-11T07:51:30.717Z,4.32
2022-12-11T07:54:00.013Z,4.57
2022-12-11T07:56:30.624Z,4.93
2022-12-11T07:59:00.605Z,4.50
2022-12-11T08:01:30.019Z,4.22
2022-12-11T08:04:05.465Z,5.35
2022-12-11T08:06:36.957Z,6.63
2022-12-11T08:09:06.607Z,8.13
2022-12-11T08:11:36.521Z,7.88
2022-12-11T08:14:05.975Z,11.70
2022-12-11T08:16:34.318Z,17.27
2022-12-11T08:19:02.699Z,10.50
2022-12-11T08:21:31.295Z,7.95
2022-12-11T08:23:59.746Z,9.23
2022-12-11T08:26:29.441Z,8.70
2022-12-11T08:28:59.820Z,9.38
2022-12-11T08:31:28.218Z,5.93
2022-12-11T08:33:57.021Z,6.38
2022-12-11T08:36:25.828Z,5.45
2022-12-11T08:38:55.796Z,6.00
2022-12-11T08:41:26.273Z,5.13
2022-12-11T08:43:55.378Z,4.50
2022-12-11T08:46:26.032Z,5.25
2022-12-11T08:48:54.472Z,3.95
2022-12-11T08:51:23.546Z,6.88
2022-12-11T08:53:56.039Z,4.00
2022-12-11T08:56:24.878Z,5.20
2022-12-11T08:58:53.461Z,4.70
2022-12-11T09:01:22.834Z,4.60
2022-12-11T09:03:53.810Z,4.90
2022-12-11T09:06:23.776Z,6.13
2022-12-11T09:08:53.279Z,6.18
2022-12-11T09:11:22.916Z,6.45
2022-12-11T09:13:51.371Z,6.53
2022-12-11T09:16:21.200Z,6.78
2022-12-11T09:18:50.458Z,7.60
2022-12-11T09:21:21.514Z,8.88
2022-12-11T09:23:50.319Z,6.28
2022-12-11T09:26:20.205Z,5.53
2022-12-11T09:28:48.882Z,4.70
2022-12-11T09:31:18.075Z,5.25
2022-12-11T09:33:46.508Z,5.88
2022-12-11T09:36:14.887Z,6.28
2022-12-11T09:38:44.953Z,7.03
2022-12-11T09:41:28.128Z,5.15
2022-12-11T09:44:01.489Z,3.92
2022-12-11T09:46:33.901Z,3.55
2022-12-11T09:49:03.510Z,5.20
2022-12-11T09:51:37.946Z,4.90
2022-12-11T09:54:07.943Z,4.50
2022-12-11T09:56:40.853Z,5.50
2022-12-11T09:59:12.548Z,9.93
2022-12-11T10:01:46.276Z,5.85
2022-12-11T10:04:20.048Z,11.02
2022-12-11T10:06:50.080Z,10.95
2022-12-11T10:09:24.556Z,12.18
2022-12-11T10:11:59.337Z,10.70
2022-12-11T10:14:31.497Z,10.40
2022-12-11T10:17:02.201Z,10.20
2022-12-11T10:19:31.750Z,11.05
2022-12-11T10:22:01.149Z,11.60
2022-12-11T10:25:09.368Z,11.93
2022-12-11T10:27:22.744Z,12.55
2022-12-11T10:30:01.238Z,10.23
2022-12-11T10:32:35.195Z,10.55
2022-12-11T10:35:07.426Z,11.15
2022-12-11T10:37:35.938Z,7.45
2022-12-11T10:40:06.286Z,8.27
2022-12-11T10:42:34.863Z,8.23
2022-12-11T10:45:03.725Z,8.32
2022-12-11T10:47:34.162Z,8.90
2022-12-11T10:50:04.909Z,8.02
2022-12-11T10:52:34.823Z,7.35
2022-12-11T10:55:04.631Z,7.75
2022-12-11T10:57:36.284Z,6.53
2022-12-11T11:00:24.363Z,6.95
2022-12-11T11:02:53.354Z,7.03
2022-12-11T11:05:29.968Z,7.45
2022-12-11T11:08:04.784Z,7.80
2022-12-11T11:10:33.173Z,8.98
2022-12-11T11:13:03.261Z,9.75
2022-12-11T11:15:32.371Z,10.52
2022-12-11T11:18:05.653Z,10.50
2022-12-11T11:20:35.816Z,10.27
2022-12-11T11:23:05.357Z,10.25
2022-12-11T11:25:34.969Z,9.23
2022-12-11T11:28:05.554Z,10.48
2022-12-11T11:30:36.402Z,10.55
2022-12-11T11:33:06.147Z,9.85
2022-12-11T11:35:34.154Z,10.20
2022-12-11T11:38:04.695Z,9.85
2022-12-11T11:40:35.565Z,9.65
2022-12-11T11:43:09.238Z,9.68
2022-12-11T11:45:41.179Z,9.45
2022-12-11T11:48:14.688Z,10.07
2022-12-11T11:50:46.357Z,9.55
2022-12-11T11:53:18.635Z,10.27
2022-12-11T11:55:50.616Z,9.95
2022-12-11T11:58:22.979Z,10.52
2022-12-11T12:00:51.701Z,10.10
2022-12-11T12:03:20.490Z,10.15
2022-12-11T12:05:51.192Z,9.88
2022-12-11T12:08:24.707Z,9.93
2022-12-11T12:10:54.779Z,9.60
2022-12-11T12:13:49.057Z,8.70
2022-12-11T12:16:51.119Z,7.53
2022-12-11T12:19:14.156Z,6.47
2022-12-11T12:21:45.218Z,6.38
2022-12-11T12:24:20.255Z,6.55
2022-12-11T12:26:53.659Z,6.82
2022-12-11T12:29:27.051Z,7.28
2022-12-11T12:31:59.774Z,6.43
2022-12-11T12:34:35.799Z,6.90
2022-12-11T12:37:09.090Z,6.77
2022-12-11T12:39:43.303Z,6.28
2022-12-11T12:42:17.536Z,6.88
2022-12-11T12:44:53.745Z,6.95
2022-12-11T12:47:22.848Z,5.30
2022-12-11T12:49:52.589Z,5.70
2022-12-11T12:52:21.828Z,6.00
2022-12-11T12:55:06.109Z,6.60
2022-12-11T12:57:35.680Z,6.78
2022-12-11T13:00:13.039Z,6.53
2022-12-11T13:05:20.908Z,5.43
2022-12-11T13:07:54.224Z,6.35
2022-12-11T13:10:28.287Z,5.57
2022-12-11T13:12:57.008Z,6.43
2022-12-11T13:15:32.716Z,6.68
2022-12-11T13:18:01.867Z,5.57
2022-12-11T13:20:31.641Z,6.10
2022-12-11T13:23:20.019Z,5.65
2022-12-11T13:25:50.128Z,6.00
2022-12-11T13:28:23.189Z,6.40
2022-12-11T13:31:00.070Z,6.40
2022-12-11T13:33:30.178Z,5.30
2022-12-11T13:36:24.360Z,5.57
2022-12-11T13:38:54.924Z,5.20
2022-12-11T13:41:24.137Z,5.15
2022-12-11T13:43:53.661Z,5.15
2022-12-11T13:46:26.485Z,5.38
2022-12-11T13:48:57.329Z,5.35
2022-12-11T13:51:29.793Z,5.80
2022-12-11T13:54:04.096Z,7.47
2022-12-11T13:56:32.720Z,12.82
2022-12-11T13:59:01.180Z,10.02
2022-12-11T14:01:32.243Z,8.93
2022-12-11T14:04:02.287Z,9.32
2022-12-11T14:06:31.874Z,7.60
2022-12-11T14:09:02.069Z,7.60
2022-12-11T14:11:31.764Z,7.60
2022-12-11T14:14:01.638Z,7.30
2022-12-11T14:16:31.720Z,7.65
2022-12-11T14:19:03.911Z,7.63
2022-12-11T14:21:32.287Z,7.60
2022-12-11T14:24:03.465Z,7.53
2022-12-11T14:26:33.199Z,7.57
2022-12-11T14:29:02.845Z,7.82
2022-12-11T14:31:35.526Z,7.45
2022-12-11T14:34:05.485Z,7.90
2022-12-11T14:36:34.754Z,7.90
2022-12-11T14:39:04.862Z,8.15
2022-12-11T14:41:40.765Z,8.18
2022-12-11T14:44:10.264Z,7.35
2022-12-11T14:46:41.945Z,7.53
2022-12-11T14:49:14.508Z,9.18
2022-12-11T14:51:44.631Z,22.40
2022-12-11T14:54:20.260Z,18.75
2022-12-11T14:56:49.249Z,20.30
2022-12-11T14:59:25.672Z,16.25
2022-12-11T15:02:00.813Z,13.88
2022-12-11T15:04:30.066Z,13.35
2022-12-11T15:06:58.293Z,10.73
2022-12-11T15:09:28.265Z,10.90
2022-12-11T15:11:57.471Z,10.88
2022-12-11T15:14:26.747Z,10.32
2022-12-11T15:16:57.666Z,9.93
2022-12-11T15:19:29.575Z,9.60
2022-12-11T15:22:02.409Z,9.90
2022-12-11T15:24:35.983Z,9.43
2022-12-11T15:27:04.343Z,8.73
2022-12-11T15:29:35.301Z,9.15
2022-12-11T15:32:05.999Z,9.65
2022-12-11T15:34:36.500Z,6.97
2022-12-11T15:37:04.860Z,5.97
2022-12-11T15:39:33.282Z,6.53
2022-12-11T15:42:01.735Z,5.93
2022-12-11T15:44:29.923Z,8.13
2022-12-11T15:46:57.929Z,8.05
2022-12-11T15:49:26.510Z,7.32
2022-12-11T15:51:56.642Z,6.68
2022-12-11T15:54:25.040Z,7.78
2022-12-11T15:56:56.588Z,7.00
2022-12-11T15:59:26.541Z,7.18
2022-12-11T16:01:55.476Z,6.47
2022-12-11T16:04:24.199Z,6.40
2022-12-11T16:06:53.329Z,6.50
2022-12-11T16:09:23.609Z,6.90
2022-12-11T16:11:54.932Z,6.88
2022-12-11T16:14:23.445Z,6.70
2022-12-11T16:16:52.028Z,6.05
2022-12-11T16:19:20.908Z,6.97
2022-12-11T16:21:49.117Z,6.78
2022-12-11T16:24:17.675Z,6.55
2022-12-11T16:26:48.462Z,6.97
2022-12-11T16:29:16.933Z,6.15
2022-12-11T16:31:44.965Z,5.93
2022-12-11T16:34:12.944Z,6.38
2022-12-11T16:36:41.380Z,6.43
2022-12-11T16:39:11.831Z,5.75
2022-12-11T16:41:39.910Z,5.07
2022-12-11T16:44:10.616Z,5.43
2022-12-11T16:46:39.344Z,5.18
2022-12-11T16:49:08.097Z,5.20
2022-12-11T16:51:36.508Z,5.28
2022-12-11T16:54:04.880Z,5.28
2022-12-11T16:56:33.414Z,4.50
2022-12-11T16:59:02.149Z,4.95
2022-12-11T17:01:32.187Z,5.03
2022-12-11T17:04:04.308Z,4.90
2022-12-11T17:06:33.011Z,5.15
2022-12-11T17:09:01.439Z,5.90
2022-12-11T17:11:30.871Z,5.45
2022-12-11T17:14:00.301Z,5.47
2022-12-11T17:16:30.405Z,5.95
2022-12-11T17:19:00.020Z,5.70
2022-12-11T17:21:29.245Z,5.78
2022-12-11T17:24:00.825Z,5.63
2022-12-11T17:26:29.047Z,5.75
2022-12-11T17:28:59.941Z,5.72
2022-12-11T17:31:28.901Z,6.10
2022-12-11T17:34:00.674Z,8.20
2022-12-11T17:36:33.013Z,9.05
2022-12-11T17:39:01.624Z,10.13
2022-12-11T17:41:31.485Z,10.90
2022-12-11T17:44:00.284Z,11.93
2022-12-11T17:46:31.854Z,12.75
2022-12-11T17:49:00.340Z,12.50
2022-12-11T17:51:29.149Z,11.73
2022-12-11T17:54:01.120Z,11.40
2022-12-11T17:56:29.636Z,10.65
2022-12-11T17:58:59.811Z,12.07
2022-12-11T18:01:34.739Z,10.85
2022-12-11T18:04:06.869Z,11.38
2022-12-11T18:06:38.246Z,11.88
2022-12-11T18:09:11.504Z,11.98
2022-12-11T18:11:40.404Z,11.02
2022-12-11T18:14:16.953Z,10.68
2022-12-11T18:16:46.421Z,11.13
2022-12-11T18:19:15.959Z,11.85
2022-12-11T18:21:46.367Z,11.57
2022-12-11T18:24:16.791Z,10.95
2022-12-11T18:26:48.970Z,9.85
2022-12-11T18:29:18.254Z,10.13
2022-12-11T18:31:47.014Z,10.63
2022-12-11T18:34:15.283Z,10.50
2022-12-11T18:36:43.924Z,10.20
2022-12-11T18:39:12.789Z,10.40
2022-12-11T18:41:43.185Z,9.18
2022-12-11T18:44:11.801Z,10.00
2022-12-11T18:46:40.541Z,10.70
2022-12-11T18:49:09.237Z,10.10
2022-12-11T18:51:38.194Z,11.57
2022-12-11T18:54:06.733Z,10.85
2022-12-11T18:56:35.556Z,11.27
2022-12-11T18:59:05.413Z,11.50
2022-12-11T19:01:37.054Z,10.68
2022-12-11T19:04:10.514Z,10.75
2022-12-11T19:06:42.943Z,9.80
2022-12-11T19:09:14.614Z,9.98
2022-12-11T19:11:43.519Z,10.55
2022-12-11T19:14:17.259Z,10.38
2022-12-11T19:16:45.683Z,10.48
2022-12-11T19:19:19.896Z,10.02
2022-12-11T19:21:49.058Z,10.43
2022-12-11T19:24:18.010Z,9.57
2022-12-11T19:26:46.537Z,9.77
2022-12-11T19:29:18.852Z,10.65
2022-12-11T19:31:47.458Z,10.15
2022-12-11T19:34:21.010Z,10.05
2022-12-11T19:36:49.695Z,9.77
2022-12-11T19:39:18.275Z,9.57
2022-12-11T19:41:46.911Z,9.20
2022-12-11T19:44:16.802Z,9.18
2022-12-11T19:46:45.318Z,9.35
2022-12-11T19:49:13.692Z,8.15
2022-12-11T19:51:42.559Z,8.15
2022-12-11T19:54:15.992Z,7.68
2022-12-11T19:56:47.197Z,7.63
2022-12-11T19:59:17.929Z,7.82
2022-12-11T20:01:48.238Z,7.60
2022-12-11T20:04:17.520Z,7.45
2022-12-11T20:06:47.074Z,7.57
2022-12-11T20:09:16.184Z,7.65
2022-12-11T20:11:45.800Z,7.20
2022-12-11T20:14:19.184Z,7.47
2022-12-11T20:19:37.910Z,6.72
2022-12-11T20:22:06.357Z,7.93
2022-12-11T20:24:35.100Z,7.82
2022-12-11T20:27:03.146Z,7.78
2022-12-11T20:29:34.115Z,7.68
2022-12-11T20:32:02.421Z,6.63
2022-12-11T20:34:32.142Z,7.10
2022-12-11T20:37:00.435Z,6.85
2022-12-11T20:39:29.284Z,6.72
2022-12-11T20:41:57.429Z,6.65
2022-12-11T20:44:25.943Z,6.97
2022-12-11T20:46:55.854Z,6.53
2022-12-11T20:49:24.259Z,6.38
2022-12-11T20:51:52.634Z,6.38
2022-12-11T20:54:20.979Z,6.70
2022-12-11T20:56:49.342Z,6.90
2022-12-11T20:59:17.459Z,6.13
2022-12-11T21:01:45.955Z,6.10
2022-12-11T21:04:15.941Z,6.45
2022-12-11T21:06:44.426Z,5.80
2022-12-11T21:09:14.379Z,5.93
2022-12-11T21:11:42.880Z,7.50
2022-12-11T21:14:11.615Z,7.18
2022-12-11T21:16:39.585Z,7.00
2022-12-11T21:19:10.202Z,6.97
2022-12-11T21:21:43.680Z,6.47
2022-12-11T21:24:15.203Z,6.75
2022-12-11T21:26:43.514Z,6.90
2022-12-11T21:29:11.812Z,7.13
2022-12-11T21:31:40.426Z,7.70
2022-12-11T21:34:09.116Z,7.30
2022-12-11T21:36:37.425Z,7.20
2022-12-11T21:39:07.750Z,7.93
2022-12-11T21:41:36.048Z,8.40
2022-12-11T21:46:53.057Z,8.35
2022-12-11T21:49:21.549Z,8.20
2022-12-11T21:51:52.838Z,9.18
2022-12-11T21:54:22.564Z,8.68
2022-12-11T21:56:51.001Z,8.63
2022-12-11T21:59:19.577Z,8.77
2022-12-11T22:01:48.055Z,8.65
2022-12-11T22:04:16.808Z,8.52
2022-12-11T22:06:47.361Z,9.15
2022-12-11T22:09:16.494Z,9.50
2022-12-11T22:11:46.817Z,8.98
2022-12-11T22:14:15.740Z,9.20
2022-12-11T22:16:45.341Z,10.23
2022-12-11T22:19:13.869Z,10.68
2022-12-11T22:21:42.164Z,11.23
2022-12-11T22:24:10.573Z,11.07
2022-12-11T22:26:38.958Z,9.65
2022-12-11T22:29:08.772Z,9.10
2022-12-11T22:31:37.029Z,11.02
2022-12-11T22:34:04.955Z,10.30
2022-12-11T22:36:32.955Z,10.05
2022-12-11T22:39:01.659Z,10.13
2022-12-11T22:41:32.059Z,9.90
2022-12-11T22:44:01.353Z,10.18
2022-12-11T22:46:31.373Z,10.05
2022-12-11T22:49:00.253Z,9.52
2022-12-11T22:51:31.143Z,9.82
2022-12-11T22:53:59.311Z,10.35
2022-12-11T22:56:27.942Z,10.27
2022-12-11T22:58:57.984Z,10.80
2022-12-11T23:01:27.310Z,11.82
2022-12-11T23:03:58.010Z,13.32
2022-12-11T23:06:27.023Z,9.50
2022-12-11T23:08:59.313Z,10.07
2022-12-11T23:11:28.985Z,10.43
2022-12-11T23:13:57.922Z,9.52
2022-12-11T23:16:26.934Z,8.93
2022-12-11T23:18:57.421Z,11.52
2022-12-11T23:21:26.769Z,18.90
2022-12-11T23:23:55.733Z,16.73
2022-12-11T23:26:24.826Z,16.75
2022-12-11T23:28:53.363Z,15.10
2022-12-11T23:31:22.055Z,15.65
2022-12-11T23:33:50.318Z,13.85
2022-12-11T23:36:19.993Z,13.90
2022-12-11T23:38:54.350Z,11.35
2022-12-11T23:41:32.062Z,12.52
2022-12-11T23:44:00.687Z,11.05
2022-12-11T23:46:28.905Z,11.60
2022-12-11T23:48:57.695Z,10.85
2022-12-11T23:51:27.807Z,11.32
2022-12-11T23:53:56.212Z,11.43
2022-12-11T23:56:26.685Z,11.43
2022-12-11T23:58:55.526Z,10.65
